Time;durP1;ratioP1;P1;durP2;ratioP2;P2;SDS_P1;SDS_P2;PMS_P1;PMS_P2;Temp;Humidity;BMP_temperature;BMP_pressure;BME280_temperature;BME280_humidity;BME280_pressure;Samples;Min_cycle;Max_cycle;Signal;HPM_P1;HPM_P2
2022/07/25 00:00:26;;;;;;;5.10;4.70;;;;;;;22.90;54.28;98026.94;5028289;28;20041;-85
2022/07/25 00:02:53;;;;;;;5.53;5.10;;;;;;;22.83;54.67;98009.63;5022830;28;20116;-86
2022/07/25 00:05:20;;;;;;;5.72;5.22;;;;;;;22.75;55.17;97992.31;5026539;28;20048;-85
2022/07/25 00:07:48;;;;;;;5.82;5.30;;;;;;;22.78;54.83;98007.78;5023785;28;20405;-85
2022/07/25 00:10:16;;;;;;;5.45;5.05;;;;;;;22.75;55.83;98004.88;5021548;28;20033;-85
2022/07/25 00:12:43;;;;;;;5.53;5.13;;;;;;;22.69;55.19;98007.59;5024955;28;20061;-90
2022/07/25 00:15:11;;;;;;;5.57;5.07;;;;;;;22.61;55.71;98002.03;5025905;28;20206;-86
2022/07/25 00:17:39;;;;;;;5.57;5.15;;;;;;;22.69;55.08;98004.91;5008621;28;20119;-85
2022/07/25 00:20:08;;;;;;;6.07;5.57;;;;;;;22.69;54.72;98004.91;5024326;28;20042;-86
2022/07/25 00:22:35;;;;;;;5.28;4.88;;;;;;;22.67;55.75;97996.41;5025676;28;20123;-87
2022/07/25 00:25:03;;;;;;;5.88;5.38;;;;;;;22.61;55.90;97994.84;5024163;28;20042;-90
2022/07/25 00:27:30;;;;;;;7.85;5.60;;;;;;;22.64;56.39;97990.78;5026457;28;20124;-86
2022/07/25 00:29:57;;;;;;;5.93;5.43;;;;;;;22.64;55.43;98002.28;5023935;28;20501;-86
2022/07/25 00:32:24;;;;;;;5.85;5.35;;;;;;;22.56;56.22;97994.88;5024685;28;20029;-88
2022/07/25 00:34:51;;;;;;;5.32;4.93;;;;;;;22.54;56.05;98007.69;5021178;28;20053;-85
2022/07/25 00:37:18;;;;;;;6.15;5.65;;;;;;;22.51;56.34;97996.78;5026229;28;20080;-87
2022/07/25 00:39:45;;;;;;;5.68;5.18;;;;;;;22.46;55.75;97997.63;5010675;28;20048;-86
2022/07/25 00:42:12;;;;;;;5.85;5.32;;;;;;;22.41;56.29;97992.31;5032891;28;20046;-88
2022/07/25 00:44:39;;;;;;;5.78;5.28;;;;;;;22.35;55.61;97994.22;5023823;28;20386;-85
2022/07/25 00:47:06;;;;;;;5.53;5.13;;;;;;;22.36;57.04;98000.34;5025138;28;20457;-87
2022/07/25 00:49:33;;;;;;;5.50;5.10;;;;;;;22.34;56.97;97992.63;5023068;28;20069;-87
2022/07/25 00:52:00;;;;;;;6.20;5.70;;;;;;;22.36;56.59;97989.66;5007294;28;20131;-87
2022/07/25 00:54:28;;;;;;;5.70;5.10;;;;;;;22.28;56.63;97987.59;5022503;28;20096;-88
2022/07/25 00:56:56;;;;;;;5.90;5.30;;;;;;;22.29;56.73;97997.19;5027222;28;20440;-87
2022/07/25 00:59:23;;;;;;;5.88;5.28;;;;;;;22.23;56.41;97984.97;5025359;28;20158;-88
2022/07/25 01:01:50;;;;;;;5.53;5.03;;;;;;;22.23;56.63;97982.28;5004622;28;20053;-87
2022/07/25 01:04:18;;;;;;;6.25;5.75;;;;;;;22.28;56.84;97984.94;5025858;28;20042;-86
2022/07/25 01:06:46;;;;;;;6.18;5.60;;;;;;;22.27;57.05;97978.00;5010214;28;20045;-88
2022/07/25 01:09:13;;;;;;;5.38;4.97;;;;;;;22.18;55.97;97986.56;5039415;28;20119;-87
2022/07/25 01:11:40;;;;;;;6.65;6.00;;;;;;;22.16;56.72;97979.94;5018821;28;20218;-88
2022/07/25 01:14:07;;;;;;;5.72;5.22;;;;;;;22.03;57.19;97967.97;5026651;28;20493;-86
2022/07/25 01:16:34;;;;;;;6.03;5.53;;;;;;;22.18;56.79;97975.91;5013259;28;20045;-86
2022/07/25 01:19:02;;;;;;;6.32;5.82;;;;;;;22.07;57.76;97977.03;5022120;28;20038;-89
2022/07/25 01:21:29;;;;;;;6.28;5.78;;;;;;;22.06;57.20;97978.09;5021974;28;20053;-87
2022/07/25 01:23:56;;;;;;;5.72;5.22;;;;;;;22.04;57.23;97961.53;5025994;28;20289;-87
2022/07/25 01:26:23;;;;;;;6.20;5.70;;;;;;;22.00;57.62;97965.84;5039445;28;20470;-85
2022/07/25 01:28:51;;;;;;;5.85;5.25;;;;;;;21.95;57.92;97957.06;5009634;28;20056;-88
2022/07/25 01:31:18;;;;;;;5.97;5.40;;;;;;;21.99;57.58;97958.91;5023954;28;20142;-86
2022/07/25 01:33:45;;;;;;;5.70;5.30;;;;;;;21.96;57.81;97959.47;5023869;28;20042;-87
2022/07/25 01:36:12;;;;;;;5.90;5.40;;;;;;;21.90;57.28;97947.22;5025395;28;20612;-86
2022/07/25 01:38:39;;;;;;;6.18;5.68;;;;;;;21.90;57.96;97947.22;5024630;28;20072;-86
2022/07/25 01:41:06;;;;;;;5.82;5.32;;;;;;;21.86;57.47;97943.50;5025186;28;20045;-85
2022/07/25 01:43:33;;;;;;;6.03;5.53;;;;;;;21.88;58.24;97952.03;5024989;28;20116;-85
2022/07/25 01:46:00;;;;;;;6.30;5.70;;;;;;;21.86;57.89;97941.63;5023042;28;20068;-85
2022/07/25 01:48:27;;;;;;;6.00;5.43;;;;;;;21.87;58.73;97945.88;5026523;28;20037;-85
2022/07/25 01:50:54;;;;;;;6.18;5.68;;;;;;;21.83;58.16;97949.38;5017729;28;20038;-85
2022/07/25 01:53:23;;;;;;;5.97;5.47;;;;;;;21.83;58.54;97957.38;5017851;28;20100;-85
2022/07/25 01:55:51;;;;;;;6.30;5.80;;;;;;;21.79;58.06;97940.34;5020262;28;20050;-86
2022/07/25 01:58:20;;;;;;;5.57;5.07;;;;;;;21.84;57.86;97943.78;5025190;28;20064;-85
2022/07/25 02:00:47;;;;;;;5.32;4.93;;;;;;;21.85;57.59;97947.25;5002449;28;20416;-85
2022/07/25 02:03:29;;;;;;;6.68;5.97;;;;;;;21.73;58.27;97936.13;5020072;28;20038;-85
2022/07/25 02:06:07;;;;;;;5.80;5.20;;;;;;;21.71;58.63;97943.56;5020235;28;20119;-86
2022/07/25 02:08:34;;;;;;;6.05;5.40;;;;;;;21.68;58.78;97952.16;5019572;28;20041;-86
2022/07/25 02:11:02;;;;;;;6.22;5.57;;;;;;;21.66;58.95;97940.97;5024124;28;20049;-85
2022/07/25 02:13:32;;;;;;;6.30;5.70;;;;;;;21.58;58.84;97937.75;5024676;28;20508;-87
2022/07/25 02:15:59;;;;;;;5.78;5.28;;;;;;;21.65;58.76;97948.13;5023842;28;20052;-87
2022/07/25 02:18:26;;;;;;;6.00;5.50;;;;;;;21.53;58.41;97937.81;5019642;28;20463;-87
2022/07/25 02:20:54;;;;;;;6.18;5.65;;;;;;;21.51;59.84;97939.94;5021053;28;20033;-86
2022/07/25 02:23:21;;;;;;;6.40;5.82;;;;;;;21.43;59.83;97926.38;5024560;28;20042;-85
2022/07/25 02:25:48;;;;;;;6.10;5.60;;;;;;;21.56;59.89;97939.91;5020111;28;20561;-86
2022/07/25 02:28:15;;;;;;;6.07;5.57;;;;;;;21.58;59.70;97944.97;5025937;28;20041;-86
2022/07/25 02:30:42;;;;;;;6.43;5.82;;;;;;;21.58;59.89;97937.75;5019183;28;20493;-85
2022/07/25 02:33:09;;;;;;;6.45;5.85;;;;;;;21.52;59.23;97938.88;5019254;28;20041;-85
2022/07/25 02:35:36;;;;;;;6.03;5.45;;;;;;;21.57;59.58;97946.06;5020781;28;20045;-86
2022/07/25 02:38:03;;;;;;;5.97;5.47;;;;;;;21.59;59.01;97944.72;5021778;28;20485;-85
2022/07/25 02:40:30;;;;;;;5.78;5.28;;;;;;;21.51;59.87;97939.94;5022808;28;20467;-85
2022/07/25 02:42:57;;;;;;;5.68;5.18;;;;;;;21.55;60.30;97949.00;5023555;28;20038;-85
2022/07/25 02:45:24;;;;;;;6.03;5.53;;;;;;;21.55;60.13;97950.88;5019509;28;20468;-85
2022/07/25 02:47:51;;;;;;;5.90;5.40;;;;;;;21.54;60.92;97955.41;5021778;28;20064;-85
2022/07/25 02:50:18;;;;;;;5.80;5.30;;;;;;;21.47;61.24;97952.25;5023143;28;20038;-85
2022/07/25 02:52:45;;;;;;;6.75;6.15;;;;;;;21.54;61.38;97958.09;5023193;28;20103;-85
2022/07/25 02:55:13;;;;;;;6.60;6.00;;;;;;;21.50;60.39;97956.22;5025094;28;20069;-85
2022/07/25 02:57:40;;;;;;;7.57;6.75;;;;;;;21.44;60.52;97952.00;5023421;28;20570;-85
2022/07/25 03:00:08;;;;;;;6.90;6.20;;;;;;;21.36;61.41;97945.34;5024729;28;20034;-85
2022/07/25 03:02:35;;;;;;;7.15;6.45;;;;;;;21.37;61.53;97961.09;5020826;28;20409;-85
2022/07/25 03:05:13;;;;;;;7.35;6.65;;;;;;;21.30;61.58;97951.78;5021373;28;20037;-85
2022/07/25 03:07:43;;;;;;;7.55;6.90;;;;;;;21.29;61.51;97952.81;5023035;28;20452;-85
2022/07/25 03:10:13;;;;;;;7.47;6.88;;;;;;;21.30;60.72;97957.91;5022909;28;20037;-85
2022/07/25 03:12:43;;;;;;;6.28;5.72;;;;;;;21.24;61.12;97950.97;5021989;28;20425;-85
2022/07/25 03:15:13;;;;;;;6.53;5.93;;;;;;;21.21;60.82;97953.38;5022449;28;20124;-86
2022/07/25 03:17:41;;;;;;;6.10;5.60;;;;;;;21.26;61.23;97956.03;5019829;28;20037;-83
2022/07/25 03:20:09;;;;;;;6.10;5.60;;;;;;;21.26;60.75;97946.16;5021531;28;20041;-85
2022/07/25 03:22:37;;;;;;;6.28;5.68;;;;;;;21.27;61.44;97938.94;5030574;28;20057;-86
2022/07/25 03:25:04;;;;;;;6.55;5.95;;;;;;;21.20;61.78;97941.09;5020144;28;20061;-86
2022/07/25 03:27:41;;;;;;;6.93;6.32;;;;;;;21.11;60.77;97928.34;5021437;28;20103;-85
2022/07/25 03:30:08;;;;;;;6.28;5.70;;;;;;;21.18;62.10;97932.59;5018716;28;20468;-86
2022/07/25 03:32:35;;;;;;;6.63;6.03;;;;;;;21.16;61.25;97924.03;5021697;28;20405;-86
2022/07/25 03:35:03;;;;;;;7.28;6.57;;;;;;;21.16;61.16;97924.03;5019436;28;20564;-86
2022/07/25 03:37:31;;;;;;;6.13;5.53;;;;;;;21.08;61.09;97907.53;5024431;28;20493;-86
2022/07/25 03:39:58;;;;;;;6.53;5.93;;;;;;;21.09;61.72;97922.47;5021566;28;20493;-85
2022/07/25 03:42:25;;;;;;;6.78;6.18;;;;;;;21.10;61.95;97921.38;5029007;28;20049;-86
2022/07/25 03:44:52;;;;;;;6.85;6.25;;;;;;;20.98;61.25;97912.91;5007099;28;20432;-85
2022/07/25 03:47:19;;;;;;;6.63;6.07;;;;;;;20.84;62.04;97895.88;5022779;28;20048;-86
2022/07/25 03:49:46;;;;;;;7.05;5.82;;;;;;;20.85;62.85;97906.28;5022423;28;20038;-86
2022/07/25 03:52:13;;;;;;;6.32;5.72;;;;;;;20.75;63.18;97897.50;5015403;28;20049;-85
2022/07/25 03:54:41;;;;;;;7.32;6.70;;;;;;;20.73;63.69;97900.44;5020230;28;20041;-86
2022/07/25 03:57:09;;;;;;;6.90;6.32;;;;;;;20.64;63.78;97890.63;5020928;28;20057;-87
2022/07/25 03:59:36;;;;;;;7.40;6.60;;;;;;;20.56;63.55;97884.75;5019819;28;20623;-85
2022/07/25 04:02:03;;;;;;;7.22;6.57;;;;;;;20.55;63.68;97896.47;5020081;28;20152;-88
2022/07/25 04:04:30;;;;;;;7.05;6.45;;;;;;;20.45;63.61;97895.66;5022338;28;20034;-85
2022/07/25 04:06:57;;;;;;;7.10;6.50;;;;;;;20.48;64.65;97898.63;5018182;28;20052;-86
2022/07/25 04:09:25;;;;;;;7.30;6.68;;;;;;;20.53;64.92;97900.47;5023195;28;20099;-86
2022/07/25 04:11:58;;;;;;;7.85;7.05;;;;;;;20.47;64.77;97880.25;5008353;28;20410;-86
2022/07/25 04:14:25;;;;;;;7.53;6.72;;;;;;;20.47;64.51;97891.69;5025532;28;20034;-85
2022/07/25 04:16:52;;;;;;;6.90;6.30;;;;;;;20.49;64.19;97886.88;5021555;28;20038;-86
2022/07/25 04:19:19;;;;;;;7.45;6.72;;;;;;;20.43;65.03;97890.59;5019938;28;20045;-85
2022/07/25 04:21:46;;;;;;;6.15;5.65;;;;;;;20.50;64.43;97882.34;5022880;28;20049;-86
2022/07/25 04:24:13;;;;;;;6.82;6.22;;;;;;;20.51;65.18;97876.78;5021802;28;20046;-86
2022/07/25 04:26:40;;;;;;;6.90;6.30;;;;;;;20.52;65.12;97886.38;5024694;28;20038;-85
2022/07/25 04:29:07;;;;;;;6.63;6.03;;;;;;;20.48;64.80;97885.28;5022706;28;20069;-88
2022/07/25 04:31:34;;;;;;;6.85;6.25;;;;;;;20.47;63.95;97890.91;5007077;28;20054;-86
2022/07/25 04:34:01;;;;;;;6.63;5.72;;;;;;;20.41;65.12;97875.97;5019941;28;20045;-85
2022/07/25 04:36:28;;;;;;;6.25;5.63;;;;;;;20.40;65.15;97879.69;5023223;28;20052;-85
2022/07/25 04:38:55;;;;;;;6.75;6.15;;;;;;;20.41;65.31;97876.75;5020376;28;20041;-85
2022/07/25 04:41:22;;;;;;;7.63;6.82;;;;;;;20.31;64.93;97884.75;5018813;28;20049;-86
2022/07/25 04:43:49;;;;;;;6.22;5.72;;;;;;;20.31;65.08;97887.41;5024085;28;20046;-86
2022/07/25 04:46:20;;;;;;;7.15;6.55;;;;;;;20.31;65.25;97868.75;5024656;28;20525;-86
2022/07/25 04:48:49;;;;;;;6.88;6.28;;;;;;;20.39;66.24;97881.56;5026188;28;20045;-86
2022/07/25 04:51:17;;;;;;;7.53;6.90;;;;;;;20.47;66.25;97870.38;5008201;28;20050;-90
2022/07/25 04:53:46;;;;;;;7.18;6.57;;;;;;;20.50;66.04;97869.84;5022285;28;20448;-88
2022/07/25 04:56:13;;;;;;;6.95;6.35;;;;;;;20.55;66.08;97861.84;5028256;28;20041;-88
2022/07/25 04:58:40;;;;;;;6.95;6.35;;;;;;;20.62;66.40;97868.75;5027983;28;20049;-87
2022/07/25 05:01:07;;;;;;;7.18;6.47;;;;;;;20.56;65.00;97866.09;5038535;28;20053;-89
2022/07/25 05:03:34;;;;;;;6.75;6.15;;;;;;;20.61;65.20;97848.50;5005728;28;21924;-86
2022/07/25 05:06:02;;;;;;;6.50;5.90;;;;;;;20.63;65.28;97854.34;5024610;28;20044;-89
2022/07/25 05:08:29;;;;;;;6.35;5.75;;;;;;;20.64;65.34;97853.31;5026220;28;20394;-88
2022/07/25 05:10:56;;;;;;;6.88;6.28;;;;;;;20.68;65.02;97854.34;5024195;28;20489;-89
2022/07/25 05:13:23;;;;;;;6.72;6.07;;;;;;;20.82;66.34;97852.72;5028110;28;20049;-88
2022/07/25 05:15:50;;;;;;;6.38;5.78;;;;;;;20.88;65.20;97848.19;5026417;28;20045;-89
2022/07/25 05:18:18;;;;;;;5.70;5.15;;;;;;;20.93;64.94;97851.63;5023218;28;20046;-88
2022/07/25 05:20:45;;;;;;;4.93;4.53;;;;;;;21.04;64.53;97849.69;5022394;28;20044;-88
2022/07/25 05:23:12;;;;;;;5.43;5.03;;;;;;;21.20;64.02;97863.78;5022870;28;20057;-88
2022/07/25 05:25:39;;;;;;;5.40;4.90;;;;;;;21.25;63.62;97859.22;5028564;28;20042;-87
2022/07/25 05:28:06;;;;;;;4.80;4.40;;;;;;;21.37;63.84;97851.72;5024028;28;20042;-87
2022/07/25 05:30:33;;;;;;;5.10;4.60;;;;;;;21.45;63.23;97855.66;5040341;28;20142;-87
2022/07/25 05:33:05;;;;;;;5.38;4.88;;;;;;;21.55;62.78;97852.94;5042591;28;20033;-87
2022/07/25 05:35:32;;;;;;;5.10;4.70;;;;;;;21.70;62.97;97856.56;5025688;28;20535;-88
2022/07/25 05:37:59;;;;;;;5.68;5.18;;;;;;;21.78;61.90;97858.69;5022007;28;20041;-89
2022/07/25 05:40:26;;;;;;;5.78;5.28;;;;;;;21.89;61.95;97862.84;5024257;28;20493;-90
2022/07/25 05:42:53;;;;;;;5.35;4.85;;;;;;;21.98;62.32;97855.06;5026361;28;20497;-87
2022/07/25 05:45:28;;;;;;;5.22;4.82;;;;;;;22.12;61.06;97858.69;5023747;28;20034;-89
2022/07/25 05:47:55;;;;;;;5.00;4.60;;;;;;;22.28;60.79;97860.16;5021562;28;20033;-89
2022/07/25 05:50:22;;;;;;;4.97;4.53;;;;;;;22.47;60.18;97862.94;5024516;28;20099;-88
2022/07/25 05:52:49;;;;;;;5.18;4.78;;;;;;;22.57;59.50;97862.84;5018111;28;20096;-87
2022/07/25 05:55:16;;;;;;;5.40;5.00;;;;;;;22.66;59.67;97850.44;5021589;28;20038;-87
2022/07/25 05:57:44;;;;;;;5.57;5.07;;;;;;;22.84;59.55;97856.13;5024686;28;20075;-87
2022/07/25 06:00:11;;;;;;;5.55;5.05;;;;;;;23.01;59.23;97851.16;5027819;28;20073;-88
2022/07/25 06:02:38;;;;;;;5.05;4.47;;;;;;;23.14;58.74;97838.94;5022867;28;20037;-86
2022/07/25 06:05:06;;;;;;;5.28;4.88;;;;;;;23.32;57.95;97846.19;5021603;28;20038;-86
2022/07/25 06:07:33;;;;;;;4.97;4.57;;;;;;;23.50;57.32;97853.44;5026496;28;20580;-87
2022/07/25 06:10:00;;;;;;;5.25;4.75;;;;;;;23.67;57.93;97850.28;5010451;28;20049;-87
2022/07/25 06:12:27;;;;;;;5.47;4.97;;;;;;;23.72;56.15;97852.91;5027470;28;20041;-90
2022/07/25 06:14:55;;;;;;;6.28;5.68;;;;;;;23.77;55.26;97846.69;5013040;28;20038;-90
2022/07/25 06:17:22;;;;;;;6.18;5.10;;;;;;;24.01;54.93;97855.41;5025009;28;20445;-89
2022/07/25 06:19:56;;;;;;;6.00;5.40;;;;;;;24.16;54.42;97858.91;5003001;28;20042;-88
2022/07/25 06:22:23;;;;;;;5.47;4.97;;;;;;;24.31;54.25;97845.25;5022310;28;20046;-92
2022/07/25 06:24:50;;;;;;;5.60;5.10;;;;;;;24.34;54.10;97847.38;5041371;28;20029;-88
2022/07/25 06:27:17;;;;;;;7.07;6.47;;;;;;;24.55;52.75;97850.50;5019692;28;20104;-86
2022/07/25 06:29:48;;;;;;;7.32;6.63;;;;;;;24.56;52.03;97841.34;5022700;28;20117;-86
2022/07/25 06:32:16;;;;;;;7.57;6.88;;;;;;;24.70;51.61;97844.84;5025615;28;20413;-86
2022/07/25 06:34:44;;;;;;;6.25;5.75;;;;;;;24.92;51.07;97844.16;5023879;28;20044;-88
2022/07/25 06:37:11;;;;;;;5.60;5.18;;;;;;;25.00;50.57;97845.31;5024018;28;20504;-86
2022/07/25 06:39:38;;;;;;;6.40;5.90;;;;;;;25.07;50.26;97829.69;5021622;28;20072;-87
2022/07/25 06:42:11;;;;;;;6.53;5.93;;;;;;;25.30;49.80;97842.03;5021801;28;20055;-87
2022/07/25 06:44:38;;;;;;;6.35;5.80;;;;;;;25.44;48.95;97835.88;5024531;28;20038;-86
2022/07/25 06:47:11;;;;;;;6.75;6.15;;;;;;;25.56;48.77;97825.38;5021660;28;20038;-88
2022/07/25 06:49:40;;;;;;;6.32;5.78;;;;;;;25.71;48.57;97821.53;5016981;28;20045;-89
2022/07/25 06:52:08;;;;;;;5.50;5.00;;;;;;;25.99;48.81;97833.00;5003501;28;20073;-88
2022/07/25 06:54:35;;;;;;;6.13;5.63;;;;;;;26.17;47.77;97834.69;5035861;28;20037;-89
2022/07/25 06:57:02;;;;;;;5.75;5.25;;;;;;;26.31;48.10;97827.31;5019418;28;20049;-90
2022/07/25 06:59:30;;;;;;;6.95;6.35;;;;;;;26.34;47.08;97807.91;5022520;28;20046;-87
2022/07/25 07:01:57;;;;;;;6.45;5.95;;;;;;;26.54;46.61;97824.63;5022368;28;20037;-88
2022/07/25 07:04:24;;;;;;;5.50;5.00;;;;;;;26.66;47.04;97819.44;5019597;28;20051;-88
2022/07/25 07:06:51;;;;;;;6.97;6.38;;;;;;;26.68;46.42;97814.53;5023915;28;20050;-88
2022/07/25 07:09:18;;;;;;;6.35;5.85;;;;;;;26.82;46.29;97817.16;5022072;28;20051;-88
2022/07/25 07:11:46;;;;;;;6.63;6.03;;;;;;;26.88;45.61;97815.91;5020683;28;20075;-88
2022/07/25 07:14:13;;;;;;;6.63;6.10;;;;;;;26.98;45.37;97809.41;5023816;28;20569;-89
2022/07/25 07:16:41;;;;;;;6.40;5.88;;;;;;;27.24;44.66;97823.75;5017924;28;20929;-88
2022/07/25 07:19:09;;;;;;;6.70;6.10;;;;;;;27.22;44.64;97820.56;5010021;28;20053;-87
2022/07/25 07:21:37;;;;;;;6.93;6.28;;;;;;;27.19;44.49;97813.13;5026131;28;20041;-91
2022/07/25 07:24:06;;;;;;;6.15;5.65;;;;;;;27.47;43.24;97825.22;5021634;28;20034;-89
2022/07/25 07:26:51;;;;;;;5.50;5.10;;;;;;;27.59;43.35;97807.59;5023685;28;20482;-88
2022/07/25 07:29:18;;;;;;;5.57;5.18;;;;;;;27.72;43.07;97804.00;5022797;28;20046;-89
2022/07/25 07:31:46;;;;;;;6.43;5.93;;;;;;;27.85;43.48;97805.72;5027010;28;20073;-88
2022/07/25 07:34:13;;;;;;;6.93;6.32;;;;;;;27.92;41.98;97806.03;5007882;28;20053;-89
2022/07/25 07:36:42;;;;;;;6.10;5.60;;;;;;;28.08;42.49;97802.84;5025302;28;20440;-90
2022/07/25 07:39:10;;;;;;;6.05;5.60;;;;;;;28.13;42.80;97800.75;5022322;28;20069;-88
2022/07/25 07:41:37;;;;;;;6.78;6.20;;;;;;;28.05;42.01;97792.69;5023115;28;20041;-89
2022/07/25 07:44:05;;;;;;;6.53;6.03;;;;;;;28.04;42.81;97783.00;5031347;28;20037;-89
2022/07/25 07:46:32;;;;;;;7.25;6.55;;;;;;;28.11;41.33;97791.41;5028450;28;20060;-89
2022/07/25 07:49:00;;;;;;;7.10;6.55;;;;;;;28.10;42.18;97781.72;5005260;28;20045;-89
2022/07/25 07:51:27;;;;;;;5.38;4.97;;;;;;;28.35;41.52;97786.28;5024187;28;20050;-89
2022/07/25 07:56:40;;;;;;;5.50;5.10;;;;;;;28.83;40.83;97777.00;5023999;28;20374;-87
2022/07/25 07:59:08;;;;;;;5.28;4.88;;;;;;;29.02;40.59;97777.38;5004178;28;20058;-87
2022/07/25 08:01:36;;;;;;;5.80;5.35;;;;;;;29.15;39.30;97780.97;5020879;28;20050;-88
2022/07/25 08:04:04;;;;;;;5.50;5.00;;;;;;;29.28;39.40;97762.91;5024681;28;20402;-88
2022/07/25 08:06:31;;;;;;;5.90;5.40;;;;;;;29.42;38.96;97768.03;5025360;28;20076;-88
2022/07/25 08:08:58;;;;;;;5.63;5.18;;;;;;;29.48;38.94;97764.81;5022963;28;20057;-85
2022/07/25 08:11:25;;;;;;;5.75;5.35;;;;;;;29.57;38.63;97765.56;5024075;28;20049;-88
2022/07/25 08:13:53;;;;;;;6.25;5.65;;;;;;;29.73;38.23;97756.81;5019513;28;20037;-90
2022/07/25 08:16:20;;;;;;;5.38;4.97;;;;;;;29.83;37.92;97761.81;5020428;28;20042;-89
2022/07/25 08:18:47;;;;;;;5.20;4.80;;;;;;;29.96;37.32;97754.53;5024612;28;20121;-88
2022/07/25 08:21:14;;;;;;;5.57;5.07;;;;;;;30.10;37.87;97745.00;5024818;28;20073;-87
2022/07/25 08:23:43;;;;;;;6.80;6.25;;;;;;;30.06;35.97;97735.19;5024324;28;20393;-86
2022/07/25 08:26:13;;;;;;;5.53;5.13;;;;;;;30.14;36.54;97736.22;5010319;28;20045;-86
2022/07/25 08:28:41;;;;;;;5.35;4.85;;;;;;;30.33;36.13;97739.16;5025360;28;20162;-87
2022/07/25 08:31:09;;;;;;;6.00;5.50;;;;;;;30.36;35.78;97733.88;5029605;28;20542;-87
2022/07/25 08:33:36;;;;;;;5.90;5.50;;;;;;;30.43;35.66;97741.44;5012952;28;20497;-85
2022/07/25 08:36:04;;;;;;;5.78;5.28;;;;;;;30.52;35.71;97733.97;5031938;28;20029;-87
2022/07/25 08:38:31;;;;;;;5.45;5.05;;;;;;;30.68;35.64;97733.31;5025708;28;20069;-87
2022/07/25 08:40:58;;;;;;;5.90;5.50;;;;;;;30.79;35.24;97731.75;5040024;28;20057;-85
2022/07/25 08:43:28;;;;;;;6.57;6.10;;;;;;;30.64;35.27;97728.56;5025413;28;20041;-89
2022/07/25 08:45:55;;;;;;;6.47;5.97;;;;;;;30.47;33.80;97719.88;5022185;28;20053;-87
2022/07/25 08:48:25;;;;;;;5.78;5.28;;;;;;;30.62;34.65;97721.91;5024088;28;20288;-87
2022/07/25 08:50:57;;;;;;;6.20;5.70;;;;;;;30.86;34.47;97727.31;5023387;28;20037;-86
2022/07/25 08:53:26;;;;;;;6.50;6.00;;;;;;;30.90;34.13;97722.81;5021918;28;20053;-90
2022/07/25 08:56:07;;;;;;;6.00;5.50;;;;;;;31.15;33.49;97720.81;5024587;28;20046;-86
2022/07/25 08:58:43;;;;;;;5.43;5.03;;;;;;;31.24;33.68;97711.75;5026124;28;20038;-88
2022/07/25 09:01:12;;;;;;;5.28;4.88;;;;;;;31.29;33.01;97709.63;5026866;28;20045;-87
2022/07/25 09:03:42;;;;;;;5.43;4.65;;;;;;;31.41;32.06;97706.06;5025939;28;20069;-85
2022/07/25 09:06:17;;;;;;;;;;;;;;;31.56;32.76;97699.91;5026222;28;20088;-89
2022/07/25 09:08:59;;;;;;;6.40;5.72;;;;;;;31.53;33.08;97703.31;5039380;28;19971;-87
2022/07/25 09:11:35;;;;;;;5.97;5.50;;;;;;;31.63;32.60;97700.09;5021193;28;20060;-87
2022/07/25 09:14:06;;;;;;;5.60;5.20;;;;;;;31.67;32.24;97694.78;5023507;28;20124;-88
2022/07/25 09:16:42;;;;;;;6.07;5.65;;;;;;;31.78;32.33;97690.41;5007106;28;20152;-88
2022/07/25 09:19:17;;;;;;;5.30;4.90;;;;;;;31.94;32.71;97682.31;5025666;28;20768;-86
2022/07/25 09:21:59;;;;;;;5.82;5.38;;;;;;;32.06;31.65;97679.50;5038605;28;20060;-87
2022/07/25 09:24:29;;;;;;;5.95;5.45;;;;;;;31.98;33.32;97680.50;5007282;28;20049;-86
2022/07/25 09:26:59;;;;;;;5.53;5.13;;;;;;;31.91;32.29;97667.53;5024653;28;20120;-86
2022/07/25 09:29:33;;;;;;;5.85;5.18;;;;;;;32.02;31.80;97680.56;5028406;28;20071;-88
2022/07/25 09:32:14;;;;;;;6.80;6.30;;;;;;;31.87;31.26;97680.22;5024247;28;20120;-87
2022/07/25 09:34:46;;;;;;;7.03;6.53;;;;;;;31.79;31.69;97669.50;5024778;28;20041;-88
2022/07/25 09:37:24;;;;;;;5.88;5.45;;;;;;;32.00;32.94;97664.66;5024574;28;20100;-84
2022/07/25 09:39:51;;;;;;;6.15;5.65;;;;;;;32.12;30.86;97664.56;5022863;28;20052;-88
2022/07/25 09:42:27;;;;;;;5.82;5.43;;;;;;;32.30;31.21;97656.81;5018696;28;20050;-90
2022/07/25 09:45:12;;;;;;;7.13;6.60;;;;;;;32.33;30.84;97656.13;5020081;28;20063;-89
2022/07/25 09:47:57;;;;;;;5.85;5.45;;;;;;;32.56;31.49;97660.91;5023162;28;20050;-90
2022/07/25 09:50:27;;;;;;;5.15;4.65;;;;;;;32.67;31.30;97660.00;5006928;28;20045;-86
2022/07/25 09:52:59;;;;;;;5.38;4.97;;;;;;;32.60;32.52;97654.44;5020787;28;20087;-88
2022/07/25 09:55:28;;;;;;;5.72;5.20;;;;;;;32.60;30.86;97640.84;5022885;28;20045;-86
2022/07/25 09:57:56;;;;;;;5.30;4.85;;;;;;;32.72;31.27;97654.31;5022635;28;20042;-86
2022/07/25 10:00:27;;;;;;;7.18;6.57;;;;;;;32.73;31.05;97655.09;5022594;28;20387;-90
2022/07/25 10:02:54;;;;;;;7.35;6.85;;;;;;;32.83;30.09;97648.31;5024310;28;20065;-87
2022/07/25 10:05:59;;;;;;;6.47;5.97;;;;;;;32.84;31.10;97649.88;5019873;28;20442;-87
2022/07/25 10:08:28;;;;;;;6.65;6.15;;;;;;;32.80;29.99;97624.56;5023234;28;20189;-90
2022/07/25 10:10:55;;;;;;;6.40;5.80;;;;;;;32.98;30.29;97631.97;5024200;28;20058;-86
2022/07/25 10:13:33;;;;;;;6.13;5.65;;;;;;;33.10;30.48;97636.47;5024017;28;20045;-87
2022/07/25 10:16:01;;;;;;;6.18;5.68;;;;;;;33.14;30.49;97637.31;5024246;28;20041;-87
2022/07/25 10:18:30;;;;;;;5.80;5.40;;;;;;;33.16;30.80;97632.31;5021650;28;20108;-85
2022/07/25 10:21:11;;;;;;;6.50;6.00;;;;;;;33.12;30.33;97625.25;5023449;28;20064;-88
2022/07/25 10:24:07;;;;;;;5.80;5.40;;;;;;;33.32;30.81;97620.56;5025989;28;20099;-87
2022/07/25 10:26:51;;;;;;;5.93;5.53;;;;;;;33.29;29.87;97608.50;5021090;28;20523;-88
2022/07/25 10:29:18;;;;;;;4.93;4.63;;;;;;;33.38;29.96;97608.25;5023784;28;20045;-86
2022/07/25 10:31:45;;;;;;;7.07;6.57;;;;;;;33.44;29.64;97604.13;5022716;28;20489;-88
2022/07/25 10:34:32;;;;;;;7.10;6.60;;;;;;;33.50;29.48;97610.84;5033899;28;20052;-88
2022/07/25 10:37:13;;;;;;;6.15;5.65;;;;;;;33.72;29.71;97609.25;5018618;28;20046;-91
2022/07/25 10:39:44;;;;;;;6.28;5.72;;;;;;;33.75;29.35;97601.16;5018789;28;20041;-88
2022/07/25 10:42:15;;;;;;;6.10;5.60;;;;;;;33.96;30.90;97597.25;5024368;28;20049;-89
2022/07/25 10:44:46;;;;;;;5.93;5.50;;;;;;;33.96;29.90;97597.25;5018311;28;20053;-89
2022/07/25 10:47:15;;;;;;;4.60;4.30;;;;;;;34.13;29.27;97591.28;5020171;28;20508;-87
2022/07/25 10:49:47;;;;;;;6.55;6.05;;;;;;;34.08;29.29;97594.31;5023069;28;20065;-87
2022/07/25 10:52:41;;;;;;;6.85;6.43;;;;;;;34.13;30.26;97596.72;5019676;28;20060;-87
2022/07/25 10:55:08;;;;;;;7.15;6.55;;;;;;;34.05;28.87;97595.03;5024961;28;20116;-90
2022/07/25 10:57:35;;;;;;;5.68;5.28;;;;;;;34.07;29.61;97581.88;5024927;28;20736;-91
2022/07/25 11:00:22;;;;;;;6.13;5.68;;;;;;;34.17;29.56;97592.09;5022738;28;20571;-87
2022/07/25 11:02:54;;;;;;;6.00;5.53;;;;;;;34.09;28.87;97595.88;5026047;28;20504;-87
2022/07/25 11:05:21;;;;;;;5.30;4.80;;;;;;;34.20;29.77;97577.00;5023202;28;20227;-86
2022/07/25 11:07:55;;;;;;;6.07;5.53;;;;;;;34.39;27.61;97585.03;5022223;28;20046;-90
2022/07/25 11:10:51;;;;;;;6.50;6.00;;;;;;;34.12;27.54;97578.81;5024371;28;20386;-90
2022/07/25 11:13:22;;;;;;;6.80;6.30;;;;;;;33.84;27.27;97562.06;5022912;28;20050;-91
2022/07/25 11:15:50;;;;;;;5.90;5.50;;;;;;;34.08;28.68;97567.09;5021178;28;20418;-88
2022/07/25 11:18:38;;;;;;;6.53;6.03;;;;;;;34.23;27.67;97568.84;5026171;28;20423;-91
2022/07/25 11:21:08;;;;;;;6.38;5.88;;;;;;;34.39;28.15;97581.53;5021562;28;20116;-91
2022/07/25 11:23:35;;;;;;;;;;;;;;;34.32;28.96;97560.44;5020578;28;20045;-89
2022/07/25 11:26:12;;;;;;;5.63;5.22;;;;;;;34.42;27.66;97556.28;5020314;28;19924;-88
2022/07/25 11:28:48;;;;;;;5.47;5.07;;;;;;;34.45;28.24;97540.03;5021226;28;20045;-89
2022/07/25 11:31:17;;;;;;;6.07;5.68;;;;;;;34.73;28.53;97542.31;5020776;28;20100;-89
2022/07/25 11:33:48;;;;;;;5.63;5.22;;;;;;;34.97;28.38;97537.53;5019943;28;20124;-89
2022/07/25 11:36:17;;;;;;;4.88;4.57;;;;;;;34.93;27.58;97533.97;5018670;28;20037;-91
2022/07/25 11:38:48;;;;;;;5.13;4.82;;;;;;;34.88;28.02;97511.31;5033870;28;20038;-91
2022/07/25 11:41:26;;;;;;;6.43;5.93;;;;;;;34.91;27.79;97530.78;5002719;28;20085;-90
2022/07/25 11:43:53;;;;;;;5.68;5.28;;;;;;;34.84;28.25;97518.66;5018071;28;20095;-90
2022/07/25 11:46:20;;;;;;;6.13;5.65;;;;;;;34.85;28.01;97517.53;5026332;28;20037;-91